Clutier, Iowa
Current Conditions -  °F | °C
As of 4:55 PM on Thursday 20 Nov 2014 (Local Time) from KVTI Reporting Station
Clear Clear  
Wind Chill: 11°   Ceiling: Unl
Heat Index: 20°   Visibility: 10mi
Dew Point: 10°   Wind: 8mph
Humidity: 66%   Direction: 300°WNW
Pressure: 30.21"   Gusts: NA
Location:  42.08°N, 92.4°W
Report Text: KVTI 202255Z AUTO 30007KT 10SM CLR M06/M12 A3021 RMK AO2 T10651120
Loading
Personal Weather Stations






























Interactive Weather Map New forecast layout! Learn more

10-Day Weather Forecast

Advertisements
Track Severe Weather on mobile